Wetterdaten: Montag, 05.08.2013
Datum Zeit Temperatur Luftfeuchte Luftdruck Regen Wind Richtung Richtung Taupunkt Windchill Windben
05.08.2013 00:00 15,7 C 90 % 1026,0 hPa 0,0 l/m 0,6 km/h (0 Bft) O-NO 67 14,1 C 15,3 C 2,7 km/h (1 Bft)
05.08.2013 00:05 15,9 C 91 % 1025,9 hPa 0,0 l/m 1,1 km/h (1 Bft) O 90 14,4 C 15,4 C 0,0 km/h (0 Bft)
05.08.2013 00:10 15,8 C 91 % 1025,9 hPa 0,0 l/m 1,6 km/h (1 Bft) O 90 14,3 C 15,4 C 2,3 km/h (1 Bft)
05.08.2013 00:15 15,5 C 91 % 1025,9 hPa 0,0 l/m 1,1 km/h (1 Bft) O-SO 112 14,0 C 15,3 C 0,0 km/h (0 Bft)
05.08.2013 00:20 15,6 C 91 % 1025,9 hPa 0,0 l/m 1,4 km/h (1 Bft) NO 45 14,1 C 15,2 C 3,9 km/h (1 Bft)
05.08.2013 00:25 15,7 C 91 % 1025,8 hPa 0,0 l/m 2,1 km/h (1 Bft) NO 45 14,2 C 15,3 C 0,0 km/h (0 Bft)
05.08.2013 00:30 15,6 C 91 % 1025,8 hPa 0,0 l/m 1,8 km/h (1 Bft) NO 45 14,1 C 15,2 C 4,0 km/h (1 Bft)
05.08.2013 00:35 15,6 C 91 % 1025,8 hPa 0,0 l/m 1,4 km/h (1 Bft) O 90 14,1 C 15,2 C 0,0 km/h (0 Bft)
05.08.2013 00:40 15,3 C 91 % 1025,8 hPa 0,0 l/m 1,0 km/h (0 Bft) N-NO 22 13,8 C 15,0 C 0,0 km/h (0 Bft)
05.08.2013 00:45 15,1 C 91 % 1025,8 hPa 0,0 l/m 0,0 km/h (0 Bft) NO 45 13,6 C 14,9 C 0,0 km/h (0 Bft)
05.08.2013 00:50 15,1 C 91 % 1025,8 hPa 0,0 l/m 0,0 km/h (0 Bft) N-NO 22 13,6 C 14,8 C 0,0 km/h (0 Bft)
05.08.2013 00:55 15,1 C 91 % 1025,8 hPa 0,0 l/m 0,0 km/h (0 Bft) O 90 13,6 C 14,8 C 2,3 km/h (1 Bft)
05.08.2013 01:00 15,2 C 91 % 1025,8 hPa 0,0 l/m 0,6 km/h (0 Bft) NO 45 13,7 C 14,9 C 0,0 km/h (0 Bft)
05.08.2013 01:05 15,0 C 91 % 1025,6 hPa 0,0 l/m 0,6 km/h (0 Bft) O-SO 112 13,5 C 14,9 C 0,0 km/h (0 Bft)
05.08.2013 01:10 15,1 C 91 % 1025,6 hPa 0,0 l/m 0,0 km/h (0 Bft) NO 45 13,6 C 14,8 C 0,0 km/h (0 Bft)
05.08.2013 01:15 15,3 C 91 % 1025,6 hPa 0,0 l/m 0,2 km/h (0 Bft) NO 45 13,8 C 14,8 C 3,2 km/h (1 Bft)
05.08.2013 01:20 15,3 C 91 % 1025,6 hPa 0,0 l/m 1,1 km/h (1 Bft) SO 135 13,8 C 15,0 C 0,0 km/h (0 Bft)
05.08.2013 01:25 14,7 C 91 % 1025,4 hPa 0,0 l/m 1,1 km/h (1 Bft) SO 135 13,2 C 14,8 C 0,0 km/h (0 Bft)
05.08.2013 01:30 14,9 C 91 % 1025,4 hPa 0,0 l/m 0,2 km/h (0 Bft) O-NO 67 13,4 C 14,5 C 0,0 km/h (0 Bft)
05.08.2013 01:35 14,7 C 91 % 1025,4 hPa 0,0 l/m 0,2 km/h (0 Bft) O-SO 112 13,2 C 14,5 C 0,0 km/h (0 Bft)
05.08.2013 01:40 14,5 C 91 % 1025,4 hPa 0,0 l/m 0,0 km/h (0 Bft) O 90 13,0 C 14,4 C 0,0 km/h (0 Bft)
05.08.2013 01:45 14,4 C 91 % 1024,9 hPa 0,0 l/m 0,0 km/h (0 Bft) O 90 12,9 C 14,3 C 0,0 km/h (0 Bft)
05.08.2013 01:50 14,2 C 91 % 1024,9 hPa 0,0 l/m 0,0 km/h (0 Bft) N 360 12,8 C 14,2 C 0,0 km/h (0 Bft)
05.08.2013 01:55 14,2 C 90 % 1024,9 hPa 0,0 l/m 0,0 km/h (0 Bft) N 360 12,6 C 14,1 C 0,0 km/h (0 Bft)
05.08.2013 02:00 14,2 C 90 % 1024,9 hPa 0,0 l/m 0,0 km/h (0 Bft) SO 135 12,6 C 14,1 C 0,0 km/h (0 Bft)
05.08.2013 02:05 14,5 C 91 % 1024,9 hPa 0,0 l/m 0,2 km/h (0 Bft) S-SW 202 13,0 C 14,3 C 2,6 km/h (1 Bft)
05.08.2013 02:10 14,0 C 91 % 1024,9 hPa 0,0 l/m 0,2 km/h (0 Bft) W-SW 247 12,6 C 14,4 C 0,0 km/h (0 Bft)
05.08.2013 02:15 14,1 C 91 % 1024,9 hPa 0,0 l/m 0,2 km/h (0 Bft) SO 135 12,7 C 14,1 C 0,0 km/h (0 Bft)
05.08.2013 02:20 13,9 C 91 % 1024,9 hPa 0,0 l/m 0,0 km/h (0 Bft) W-SW 247 12,5 C 14,0 C 0,0 km/h (0 Bft)
05.08.2013 02:25 13,8 C 90 % 1024,8 hPa 0,0 l/m 0,0 km/h (0 Bft) W-SW 247 12,2 C 13,8 C 0,0 km/h (0 Bft)
05.08.2013 02:30 13,9 C 91 % 1024,8 hPa 0,0 l/m 0,0 km/h (0 Bft) W-NW 292 12,5 C 13,7 C 0,0 km/h (0 Bft)
05.08.2013 02:35 13,9 C 91 % 1024,8 hPa 0,0 l/m 0,0 km/h (0 Bft) W-NW 292 12,5 C 13,7 C 0,0 km/h (0 Bft)
05.08.2013 02:40 13,9 C 91 % 1024,8 hPa 0,0 l/m 0,0 km/h (0 Bft) SO 135 12,5 C 13,8 C 0,0 km/h (0 Bft)
05.08.2013 02:45 14,2 C 91 % 1024,2 hPa 0,0 l/m 0,0 km/h (0 Bft) S-SO 157 12,8 C 13,8 C 0,0 km/h (0 Bft)
05.08.2013 02:50 14,1 C 91 % 1024,2 hPa 0,0 l/m 0,0 km/h (0 Bft) S-SW 202 12,7 C 13,9 C 0,0 km/h (0 Bft)
05.08.2013 02:55 14,0 C 91 % 1024,2 hPa 0,0 l/m 0,0 km/h (0 Bft) S 180 12,6 C 14,0 C 0,0 km/h (0 Bft)
05.08.2013 03:00 14,1 C 91 % 1024,2 hPa 0,0 l/m 0,0 km/h (0 Bft) S-SW 202 12,7 C 13,8 C 0,0 km/h (0 Bft)
05.08.2013 03:05 13,9 C 91 % 1024,2 hPa 0,0 l/m 0,0 km/h (0 Bft) W 270 12,5 C 13,8 C 0,0 km/h (0 Bft)
05.08.2013 03:10 13,8 C 91 % 1024,2 hPa 0,0 l/m 0,0 km/h (0 Bft) S 180 12,4 C 13,8 C 0,0 km/h (0 Bft)
05.08.2013 03:15 13,9 C 91 % 1024,2 hPa 0,0 l/m 0,0 km/h (0 Bft) SO 135 12,5 C 13,7 C 0,0 km/h (0 Bft)
05.08.2013 03:20 13,8 C 91 % 1024,2 hPa 0,0 l/m 0,0 km/h (0 Bft) S-SW 202 12,4 C 13,7 C 0,0 km/h (0 Bft)
05.08.2013 03:25 13,8 C 91 % 1024,0 hPa 0,0 l/m 0,0 km/h (0 Bft) S 180 12,4 C 13,7 C 0,0 km/h (0 Bft)
05.08.2013 03:30 13,7 C 91 % 1024,0 hPa 0,0 l/m 0,0 km/h (0 Bft) W 270 12,3 C 13,6 C 0,0 km/h (0 Bft)
05.08.2013 03:35 13,6 C 91 % 1024,0 hPa 0,0 l/m 0,0 km/h (0 Bft) W 270 12,2 C 13,6 C 0,0 km/h (0 Bft)
05.08.2013 03:40 13,4 C 91 % 1024,0 hPa 0,0 l/m 0,0 km/h (0 Bft) SO 135 12,0 C 13,4 C 0,0 km/h (0 Bft)
05.08.2013 03:45 13,5 C 91 % 1023,8 hPa 0,0 l/m 0,0 km/h (0 Bft) SO 135 12,1 C 13,3 C 0,0 km/h (0 Bft)
05.08.2013 03:50 13,5 C 91 % 1023,8 hPa 0,0 l/m 0,0 km/h (0 Bft) SO 135 12,1 C 13,3 C 0,0 km/h (0 Bft)
05.08.2013 03:55 13,4 C 91 % 1023,8 hPa 0,0 l/m 0,0 km/h (0 Bft) W-NW 292 12,0 C 13,4 C 0,0 km/h (0 Bft)
05.08.2013 04:00 13,8 C 91 % 1023,8 hPa 0,0 l/m 0,8 km/h (0 Bft) O-SO 112 12,4 C 13,5 C 1,6 km/h (1 Bft)
05.08.2013 04:05 13,7 C 91 % 1023,8 hPa 0,0 l/m 0,8 km/h (0 Bft) NO 45 12,3 C 13,6 C 0,0 km/h (0 Bft)
05.08.2013 04:10 13,4 C 91 % 1023,8 hPa 0,0 l/m 0,2 km/h (0 Bft) SO 135 12,0 C 13,6 C 0,0 km/h (0 Bft)
05.08.2013 04:15 13,5 C 91 % 1023,8 hPa 0,0 l/m 0,2 km/h (0 Bft) O 90 12,1 C 13,5 C 1,9 km/h (1 Bft)
05.08.2013 04:20 13,6 C 91 % 1023,8 hPa 0,0 l/m 0,3 km/h (0 Bft) NO 45 12,2 C 13,6 C 0,0 km/h (0 Bft)
05.08.2013 04:25 13,5 C 91 % 1023,4 hPa 0,0 l/m 0,3 km/h (0 Bft) O 90 12,1 C 13,4 C 0,0 km/h (0 Bft)
05.08.2013 04:30 13,4 C 91 % 1023,4 hPa 0,0 l/m 0,0 km/h (0 Bft) N-NW 337 12,0 C 13,4 C 0,0 km/h (0 Bft)
05.08.2013 04:35 13,2 C 91 % 1023,4 hPa 0,0 l/m 0,0 km/h (0 Bft) N-NW 337 11,8 C 13,4 C 0,0 km/h (0 Bft)
05.08.2013 04:40 13,2 C 91 % 1023,4 hPa 0,0 l/m 0,0 km/h (0 Bft) N-NO 22 11,8 C 13,1 C 0,0 km/h (0 Bft)
05.08.2013 04:45 13,1 C 91 % 1023,1 hPa 0,0 l/m 0,0 km/h (0 Bft) W-NW 292 11,7 C 13,1 C 0,0 km/h (0 Bft)
05.08.2013 04:50 13,3 C 91 % 1023,1 hPa 0,0 l/m 0,0 km/h (0 Bft) O 90 11,9 C 13,1 C 0,0 km/h (0 Bft)
05.08.2013 04:55 13,8 C 91 % 1023,1 hPa 0,0 l/m 0,6 km/h (0 Bft) NO 45 12,4 C 13,3 C 3,1 km/h (1 Bft)
05.08.2013 05:00 13,5 C 91 % 1023,1 hPa 0,0 l/m 1,1 km/h (1 Bft) SW 225 12,1 C 13,5 C 0,0 km/h (0 Bft)
05.08.2013 05:05 13,1 C 91 % 1022,9 hPa 0,0 l/m 0,6 km/h (0 Bft) W-SW 247 11,7 C 13,3 C 0,0 km/h (0 Bft)
05.08.2013 05:10 12,9 C 92 % 1022,9 hPa 0,0 l/m 0,0 km/h (0 Bft) N-NW 337 11,6 C 13,1 C 0,0 km/h (0 Bft)
05.08.2013 05:15 13,0 C 91 % 1022,9 hPa 0,0 l/m 0,0 km/h (0 Bft) N 360 11,6 C 12,9 C 0,0 km/h (0 Bft)
05.08.2013 05:20 13,1 C 91 % 1022,9 hPa 0,0 l/m 0,0 km/h (0 Bft) N 360 11,7 C 12,8 C 0,0 km/h (0 Bft)
05.08.2013 05:25 13,2 C 91 % 1022,7 hPa 0,0 l/m 0,0 km/h (0 Bft) W 270 11,8 C 12,9 C 0,0 km/h (0 Bft)
05.08.2013 05:30 12,8 C 92 % 1022,7 hPa 0,0 l/m 0,0 km/h (0 Bft) O 90 11,5 C 12,9 C 0,0 km/h (0 Bft)
05.08.2013 05:35 12,8 C 92 % 1022,7 hPa 0,0 l/m 0,0 km/h (0 Bft) O 90 11,5 C 12,8 C 0,0 km/h (0 Bft)
05.08.2013 05:40 12,8 C 92 % 1022,7 hPa 0,0 l/m 0,0 km/h (0 Bft) N-NO 22 11,5 C 12,8 C 0,0 km/h (0 Bft)
05.08.2013 05:45 12,7 C 92 % 1022,7 hPa 0,0 l/m 0,0 km/h (0 Bft) S 180 11,4 C 12,7 C 0,0 km/h (0 Bft)
05.08.2013 05:50 12,6 C 92 % 1022,7 hPa 0,0 l/m 0,0 km/h (0 Bft) W-SW 247 11,3 C 12,7 C 0,0 km/h (0 Bft)
05.08.2013 05:55 12,7 C 92 % 1022,7 hPa 0,0 l/m 0,0 km/h (0 Bft) N-NO 22 11,4 C 12,6 C 0,0 km/h (0 Bft)
05.08.2013 06:00 13,0 C 91 % 1022,7 hPa 0,0 l/m 0,2 km/h (0 Bft) NO 45 11,6 C 12,6 C 1,8 km/h (1 Bft)
05.08.2013 06:05 13,3 C 92 % 1022,5 hPa 0,0 l/m 0,3 km/h (0 Bft) O 90 12,0 C 12,9 C 0,0 km/h (0 Bft)
05.08.2013 06:10 13,2 C 92 % 1022,5 hPa 0,0 l/m 0,3 km/h (0 Bft) S-SW 202 11,9 C 13,1 C 0,0 km/h (0 Bft)
05.08.2013 06:15 13,2 C 92 % 1022,5 hPa 0,0 l/m 0,0 km/h (0 Bft) N-NW 337 11,9 C 13,1 C 0,0 km/h (0 Bft)
05.08.2013 06:20 13,1 C 92 % 1022,5 hPa 0,0 l/m 0,0 km/h (0 Bft) N-NO 22 11,8 C 13,1 C 0,0 km/h (0 Bft)
05.08.2013 06:25 13,1 C 92 % 1022,3 hPa 0,0 l/m 0,0 km/h (0 Bft) S 180 11,8 C 13,1 C 0,0 km/h (0 Bft)
05.08.2013 06:30 13,2 C 92 % 1022,3 hPa 0,0 l/m 0,0 km/h (0 Bft) N-NW 337 11,9 C 13,2 C 0,0 km/h (0 Bft)
05.08.2013 06:35 13,2 C 92 % 1022,3 hPa 0,0 l/m 0,0 km/h (0 Bft) N-NO 22 11,9 C 13,3 C 0,0 km/h (0 Bft)
05.08.2013 06:40 13,5 C 92 % 1022,3 hPa 0,0 l/m 0,3 km/h (0 Bft) NO 45 12,2 C 13,5 C 1,9 km/h (1 Bft)
05.08.2013 06:45 13,7 C 92 % 1022,3 hPa 0,0 l/m 0,6 km/h (0 Bft) NO 45 12,4 C 13,9 C 0,0 km/h (0 Bft)
05.08.2013 06:50 14,2 C 92 % 1022,3 hPa 0,0 l/m 0,5 km/h (0 Bft) N-NO 22 12,9 C 14,7 C 0,0 km/h (0 Bft)
05.08.2013 06:55 14,1 C 92 % 1022,3 hPa 0,0 l/m 0,0 km/h (0 Bft) N-NO 22 12,8 C 15,3 C 0,0 km/h (0 Bft)
05.08.2013 07:00 14,1 C 92 % 1022,3 hPa 0,0 l/m 0,0 km/h (0 Bft) NO 45 12,8 C 16,1 C 0,0 km/h (0 Bft)
05.08.2013 07:05 14,4 C 92 % 1022,4 hPa 0,0 l/m 0,0 km/h (0 Bft) NO 45 13,1 C 16,6 C 0,0 km/h (0 Bft)
05.08.2013 07:10 15,9 C 92 % 1022,4 hPa 0,0 l/m 0,3 km/h (0 Bft) O-NO 67 14,6 C 17,0 C 0,0 km/h (0 Bft)
05.08.2013 07:15 16,3 C 90 % 1022,4 hPa 0,0 l/m 0,3 km/h (0 Bft) O-NO 67 14,7 C 17,8 C 0,0 km/h (0 Bft)
05.08.2013 07:20 16,5 C 90 % 1022,4 hPa 0,0 l/m 0,0 km/h (0 Bft) N 360 14,9 C 18,6 C 0,0 km/h (0 Bft)
05.08.2013 07:25 17,0 C 89 % 1022,4 hPa 0,0 l/m 0,0 km/h (0 Bft) NO 45 15,2 C 18,9 C 0,0 km/h (0 Bft)
05.08.2013 07:30 15,6 C 89 % 1022,4 hPa 0,0 l/m 0,0 km/h (0 Bft) NO 45 13,8 C 19,5 C 0,0 km/h (0 Bft)
05.08.2013 07:35 15,5 C 90 % 1022,4 hPa 0,0 l/m 0,0 km/h (0 Bft) NO 45 13,9 C 19,9 C 0,0 km/h (0 Bft)
05.08.2013 07:40 15,9 C 91 % 1022,4 hPa 0,0 l/m 0,0 km/h (0 Bft) NO 45 14,4 C 20,6 C 0,0 km/h (0 Bft)
05.08.2013 07:45 18,6 C 89 % 1022,4 hPa 0,0 l/m 0,0 km/h (0 Bft) NO 45 16,7 C 21,4 C 0,0 km/h (0 Bft)
05.08.2013 07:50 19,9 C 87 % 1022,4 hPa 0,0 l/m 0,0 km/h (0 Bft) NO 45 17,7 C 22,3 C 0,0 km/h (0 Bft)
05.08.2013 07:55 21,7 C 86 % 1022,4 hPa 0,0 l/m 0,0 km/h (0 Bft) N 360 19,3 C 22,9 C 0,0 km/h (0 Bft)
05.08.2013 08:00 21,8 C 81 % 1022,4 hPa 0,0 l/m 0,0 km/h (0 Bft) NW 315 18,4 C 23,7 C 0,0 km/h (0 Bft)
05.08.2013 08:05 22,2 C 79 % 1022,5 hPa 0,0 l/m 0,0 km/h (0 Bft) NW 315 18,4 C 24,2 C 0,0 km/h (0 Bft)
05.08.2013 08:10 22,7 C 75 % 1022,5 hPa 0,0 l/m 0,0 km/h (0 Bft) W 270 18,0 C 24,7 C 0,0 km/h (0 Bft)
05.08.2013 08:15 23,7 C 75 % 1022,5 hPa 0,0 l/m 0,0 km/h (0 Bft) W-NW 292 19,0 C 25,2 C 0,0 km/h (0 Bft)
05.08.2013 08:20 24,2 C 70 % 1022,5 hPa 0,0 l/m 0,0 km/h (0 Bft) N 360 18,4 C 25,4 C 0,0 km/h (0 Bft)
05.08.2013 08:25 24,9 C 70 % 1022,6 hPa 0,0 l/m 0,0 km/h (0 Bft) W 270 19,0 C 25,7 C 0,0 km/h (0 Bft)
05.08.2013 08:30 24,5 C 64 % 1022,6 hPa 0,0 l/m 0,8 km/h (0 Bft) N-NO 22 17,2 C 25,3 C 2,9 km/h (1 Bft)
05.08.2013 08:35 24,2 C 60 % 1022,6 hPa 0,0 l/m 1,6 km/h (1 Bft) N-NO 22 15,9 C 24,9 C 2,9 km/h (1 Bft)
05.08.2013 08:40 24,3 C 62 % 1022,6 hPa 0,0 l/m 1,9 km/h (1 Bft) NO 45 16,5 C 24,9 C 0,0 km/h (0 Bft)
05.08.2013 08:45 24,5 C 59 % 1022,6 hPa 0,0 l/m 1,6 km/h (1 Bft) N 360 15,9 C 25,2 C 2,7 km/h (1 Bft)
05.08.2013 08:50 24,7 C 59 % 1022,6 hPa 0,0 l/m 1,8 km/h (1 Bft) NW 315 16,1 C 25,1 C 2,4 km/h (1 Bft)
05.08.2013 08:55 25,6 C 59 % 1022,6 hPa 0,0 l/m 2,1 km/h (1 Bft) W-SW 247 17,0 C 25,2 C 2,9 km/h (1 Bft)
05.08.2013 09:00 25,2 C 58 % 1022,6 hPa 0,0 l/m 1,6 km/h (1 Bft) N 360 16,3 C 25,3 C 4,2 km/h (1 Bft)
05.08.2013 09:05 25,8 C 58 % 1022,5 hPa 0,0 l/m 1,4 km/h (1 Bft) W-SW 247 16,9 C 25,7 C 3,4 km/h (1 Bft)
05.08.2013 09:10 25,1 C 57 % 1022,5 hPa 0,0 l/m 1,0 km/h (0 Bft) N-NW 337 16,0 C 26,3 C 0,0 km/h (0 Bft)
05.08.2013 09:15 26,1 C 58 % 1022,5 hPa 0,0 l/m 0,6 km/h (0 Bft) SO 135 17,2 C 27,0 C 0,0 km/h (0 Bft)
05.08.2013 09:20 27,1 C 56 % 1022,5 hPa 0,0 l/m 0,3 km/h (0 Bft) S-SO 157 17,5 C 27,8 C 0,0 km/h (0 Bft)
05.08.2013 09:25 27,2 C 53 % 1022,8 hPa 0,0 l/m 0,6 km/h (0 Bft) S-SO 157 16,8 C 27,9 C 0,0 km/h (0 Bft)
05.08.2013 09:30 26,5 C 51 % 1022,8 hPa 0,0 l/m 1,8 km/h (1 Bft) S-SW 202 15,5 C 27,4 C 5,0 km/h (1 Bft)
05.08.2013 09:35 26,7 C 52 % 1022,8 hPa 0,0 l/m 1,6 km/h (1 Bft) S 180 16,0 C 27,6 C 0,0 km/h (0 Bft)
05.08.2013 09:40 26,6 C 51 % 1022,8 hPa 0,0 l/m 0,6 km/h (0 Bft) W 270 15,6 C 28,2 C 0,0 km/h (0 Bft)
05.08.2013 09:45 27,0 C 53 % 1022,9 hPa 0,0 l/m 0,3 km/h (0 Bft) W 270 16,6 C 28,4 C 0,0 km/h (0 Bft)
05.08.2013 09:50 26,6 C 52 % 1022,9 hPa 0,0 l/m 1,0 km/h (0 Bft) W 270 15,9 C 28,6 C 2,7 km/h (1 Bft)
05.08.2013 09:55 27,7 C 52 % 1022,9 hPa 0,0 l/m 1,3 km/h (1 Bft) S 180 16,9 C 28,6 C 1,6 km/h (1 Bft)
05.08.2013 10:00 27,0 C 50 % 1022,9 hPa 0,0 l/m 1,8 km/h (1 Bft) W 270 15,7 C 28,5 C 3,1 km/h (1 Bft)
05.08.2013 10:05 27,2 C 51 % 1022,8 hPa 0,0 l/m 1,9 km/h (1 Bft) W-NW 292 16,2 C 28,5 C 4,8 km/h (1 Bft)
05.08.2013 10:10 27,0 C 50 % 1022,8 hPa 0,0 l/m 1,8 km/h (1 Bft) NO 45 15,7 C 28,1 C 5,5 km/h (1 Bft)
05.08.2013 10:15 27,3 C 50 % 1022,8 hPa 0,0 l/m 1,3 km/h (1 Bft) W-NW 292 15,9 C 28,8 C 4,2 km/h (1 Bft)
05.08.2013 10:20 26,7 C 48 % 1022,8 hPa 0,0 l/m 1,8 km/h (1 Bft) W-NW 292 14,8 C 28,6 C 2,7 km/h (1 Bft)
05.08.2013 10:25 26,9 C 51 % 1022,8 hPa 0,0 l/m 1,9 km/h (1 Bft) W-SW 247 15,9 C 28,8 C 2,6 km/h (1 Bft)
05.08.2013 10:30 26,3 C 50 % 1022,8 hPa 0,0 l/m 1,3 km/h (1 Bft) S-SO 157 15,0 C 29,3 C 2,1 km/h (1 Bft)
05.08.2013 10:35 26,7 C 50 % 1022,8 hPa 0,0 l/m 1,8 km/h (1 Bft) W-SW 247 15,4 C 29,3 C 1,8 km/h (1 Bft)
05.08.2013 10:40 26,9 C 50 % 1022,8 hPa 0,0 l/m 1,4 km/h (1 Bft) S-SW 202 15,6 C 29,6 C 2,1 km/h (1 Bft)
05.08.2013 10:45 26,7 C 50 % 1023,2 hPa 0,0 l/m 1,3 km/h (1 Bft) N-NW 337 15,4 C 29,5 C 1,8 km/h (1 Bft)
05.08.2013 10:50 26,6 C 48 % 1023,2 hPa 0,0 l/m 1,9 km/h (1 Bft) NO 45 14,7 C 29,3 C 2,6 km/h (1 Bft)
05.08.2013 10:55 27,0 C 48 % 1023,2 hPa 0,0 l/m 2,4 km/h (1 Bft) N-NW 337 15,0 C 29,3 C 3,1 km/h (1 Bft)
05.08.2013 11:00 27,6 C 48 % 1023,2 hPa 0,0 l/m 2,3 km/h (1 Bft) N 360 15,6 C 29,6 C 7,1 km/h (2 Bft)
05.08.2013 11:05 27,4 C 49 % 1023,4 hPa 0,0 l/m 2,4 km/h (1 Bft) NW 315 15,7 C 29,3 C 4,7 km/h (1 Bft)
05.08.2013 11:10 28,2 C 48 % 1023,4 hPa 0,0 l/m 3,4 km/h (1 Bft) W-NW 292 16,1 C 29,1 C 2,4 km/h (1 Bft)
05.08.2013 11:15 27,6 C 48 % 1023,4 hPa 0,0 l/m 3,1 km/h (1 Bft) N 360 15,6 C 29,1 C 2,7 km/h (1 Bft)
05.08.2013 11:20 28,7 C 48 % 1023,4 hPa 0,0 l/m 1,6 km/h (1 Bft) N-NW 337 16,6 C 29,8 C 0,0 km/h (0 Bft)
05.08.2013 11:25 28,7 C 48 % 1023,2 hPa 0,0 l/m 1,4 km/h (1 Bft) SO 135 16,6 C 30,2 C 5,8 km/h (2 Bft)
05.08.2013 11:30 28,8 C 47 % 1023,2 hPa 0,0 l/m 1,8 km/h (1 Bft) NW 315 16,3 C 30,3 C 4,0 km/h (1 Bft)
05.08.2013 11:35 28,6 C 47 % 1023,2 hPa 0,0 l/m 1,9 km/h (1 Bft) N-NW 337 16,2 C 30,4 C 5,8 km/h (2 Bft)
05.08.2013 11:40 29,1 C 47 % 1023,2 hPa 0,0 l/m 2,4 km/h (1 Bft) W-SW 247 16,6 C 29,8 C 3,7 km/h (1 Bft)
05.08.2013 11:45 28,8 C 46 % 1023,4 hPa 0,0 l/m 2,4 km/h (1 Bft) W-NW 292 16,0 C 29,3 C 3,5 km/h (1 Bft)
05.08.2013 11:50 28,7 C 48 % 1023,4 hPa 0,0 l/m 3,4 km/h (1 Bft) NW 315 16,6 C 28,3 C 7,7 km/h (2 Bft)
05.08.2013 11:55 28,7 C 47 % 1023,4 hPa 0,0 l/m 3,4 km/h (1 Bft) N-NO 22 16,3 C 27,7 C 3,9 km/h (1 Bft)
05.08.2013 12:00 28,8 C 48 % 1023,4 hPa 0,0 l/m 3,5 km/h (1 Bft) N-NW 337 16,7 C 27,6 C 9,0 km/h (2 Bft)
05.08.2013 12:05 29,3 C 48 % 1023,3 hPa 0,0 l/m 3,7 km/h (1 Bft) N 360 17,1 C 28,1 C 7,1 km/h (2 Bft)
05.08.2013 12:10 28,9 C 47 % 1023,3 hPa 0,0 l/m 4,0 km/h (1 Bft) W 270 16,4 C 28,7 C 5,3 km/h (1 Bft)
05.08.2013 12:15 28,7 C 48 % 1023,3 hPa 0,0 l/m 3,9 km/h (1 Bft) W 270 16,6 C 29,1 C 5,6 km/h (1 Bft)
05.08.2013 12:20 29,3 C 48 % 1023,3 hPa 0,0 l/m 3,9 km/h (1 Bft) N 360 17,1 C 29,6 C 6,6 km/h (2 Bft)
05.08.2013 12:25 28,9 C 49 % 1023,2 hPa 0,0 l/m 3,9 km/h (1 Bft) NO 45 17,1 C 29,8 C 5,5 km/h (1 Bft)
05.08.2013 12:30 28,6 C 48 % 1023,2 hPa 0,0 l/m 3,4 km/h (1 Bft) N-NW 337 16,5 C 30,2 C 2,1 km/h (1 Bft)
05.08.2013 12:35 28,9 C 49 % 1023,2 hPa 0,0 l/m 3,9 km/h (1 Bft) NW 315 17,1 C 30,2 C 8,9 km/h (2 Bft)
05.08.2013 12:40 28,2 C 47 % 1023,2 hPa 0,0 l/m 4,3 km/h (1 Bft) NO 45 15,8 C 29,9 C 9,2 km/h (2 Bft)
05.08.2013 12:45 28,9 C 47 % 1023,1 hPa 0,0 l/m 4,8 km/h (1 Bft) N-NW 337 16,4 C 29,9 C 5,8 km/h (2 Bft)
05.08.2013 12:50 28,3 C 47 % 1023,1 hPa 0,0 l/m 4,7 km/h (1 Bft) NO 45 15,9 C 29,8 C 11,6 km/h (2 Bft)
05.08.2013 12:55 28,4 C 46 % 1023,1 hPa 0,0 l/m 4,7 km/h (1 Bft) N 360 15,6 C 29,8 C 7,4 km/h (2 Bft)
05.08.2013 13:00 28,8 C 48 % 1023,1 hPa 0,0 l/m 3,9 km/h (1 Bft) N-NO 22 16,7 C 30,2 C 4,2 km/h (1 Bft)
05.08.2013 13:05 28,8 C 48 % 1023,1 hPa 0,0 l/m 4,0 km/h (1 Bft) N-NW 337 16,7 C 30,3 C 4,0 km/h (1 Bft)
05.08.2013 13:10 28,5 C 47 % 1023,1 hPa 0,0 l/m 4,8 km/h (1 Bft) S-SW 202 16,1 C 30,2 C 6,3 km/h (2 Bft)
05.08.2013 13:15 28,9 C 47 % 1023,1 hPa 0,0 l/m 4,7 km/h (1 Bft) W-NW 292 16,4 C 30,0 C 6,1 km/h (2 Bft)
05.08.2013 13:20 29,1 C 47 % 1023,1 hPa 0,0 l/m 5,0 km/h (1 Bft) NW 315 16,6 C 30,0 C 5,3 km/h (1 Bft)
05.08.2013 13:25 28,6 C 48 % 1022,9 hPa 0,0 l/m 4,5 km/h (1 Bft) NW 315 16,5 C 30,0 C 3,9 km/h (1 Bft)
05.08.2013 13:30 28,3 C 48 % 1022,9 hPa 0,0 l/m 4,3 km/h (1 Bft) W-NW 292 16,2 C 30,3 C 4,3 km/h (1 Bft)
05.08.2013 13:35 29,0 C 46 % 1022,9 hPa 0,0 l/m 4,3 km/h (1 Bft) W 270 16,2 C 30,3 C 8,2 km/h (2 Bft)
05.08.2013 13:40 28,9 C 47 % 1022,9 hPa 0,0 l/m 3,9 km/h (1 Bft) O 90 16,4 C 30,7 C 3,9 km/h (1 Bft)
05.08.2013 13:45 28,8 C 48 % 1022,8 hPa 0,0 l/m 3,7 km/h (1 Bft) N-NW 337 16,7 C 31,0 C 8,5 km/h (2 Bft)
05.08.2013 13:50 29,2 C 47 % 1022,8 hPa 0,0 l/m 4,3 km/h (1 Bft) W-SW 247 16,7 C 30,7 C 4,0 km/h (1 Bft)
05.08.2013 13:55 29,1 C 47 % 1022,8 hPa 0,0 l/m 4,0 km/h (1 Bft) N-NW 337 16,6 C 30,7 C 1,9 km/h (1 Bft)
05.08.2013 14:00 29,4 C 46 % 1022,8 hPa 0,0 l/m 3,5 km/h (1 Bft) W-NW 292 16,5 C 31,2 C 6,4 km/h (2 Bft)
05.08.2013 14:05 29,7 C 46 % 1022,9 hPa 0,0 l/m 4,2 km/h (1 Bft) N-NW 337 16,8 C 31,2 C 6,9 km/h (2 Bft)
05.08.2013 14:10 29,5 C 46 % 1022,9 hPa 0,0 l/m 4,5 km/h (1 Bft) W-SW 247 16,6 C 31,2 C 6,9 km/h (2 Bft)
05.08.2013 14:15 29,2 C 47 % 1022,9 hPa 0,0 l/m 4,3 km/h (1 Bft) W 270 16,7 C 31,4 C 6,3 km/h (2 Bft)
05.08.2013 14:20 29,4 C 47 % 1022,9 hPa 0,0 l/m 3,2 km/h (1 Bft) NW 315 16,9 C 31,8 C 4,0 km/h (1 Bft)
05.08.2013 14:25 29,5 C 47 % 1022,8 hPa 0,0 l/m 2,9 km/h (1 Bft) S 180 17,0 C 32,1 C 0,0 km/h (0 Bft)
05.08.2013 14:30 29,6 C 46 % 1022,8 hPa 0,0 l/m 3,4 km/h (1 Bft) N 360 16,7 C 32,7 C 12,6 km/h (3 Bft)
05.08.2013 14:35 29,5 C 46 % 1022,8 hPa 0,0 l/m 4,0 km/h (1 Bft) N-NO 22 16,6 C 32,1 C 8,2 km/h (2 Bft)
05.08.2013 14:40 29,9 C 47 % 1022,8 hPa 0,0 l/m 4,7 km/h (1 Bft) S 180 17,3 C 32,1 C 3,2 km/h (1 Bft)
05.08.2013 14:45 29,7 C 47 % 1022,6 hPa 0,0 l/m 3,7 km/h (1 Bft) W-NW 292 17,2 C 32,3 C 3,7 km/h (1 Bft)
05.08.2013 14:50 30,1 C 45 % 1022,6 hPa 0,0 l/m 3,7 km/h (1 Bft) W 270 16,8 C 32,4 C 5,0 km/h (1 Bft)
05.08.2013 14:55 30,1 C 44 % 1022,6 hPa 0,0 l/m 4,0 km/h (1 Bft) N-NO 22 16,5 C 32,1 C 4,2 km/h (1 Bft)
05.08.2013 15:00 29,8 C 45 % 1022,6 hPa 0,0 l/m 4,0 km/h (1 Bft) W-NW 292 16,6 C 32,2 C 2,4 km/h (1 Bft)
05.08.2013 15:05 29,8 C 45 % 1022,6 hPa 0,0 l/m 4,3 km/h (1 Bft) NO 45 16,6 C 32,2 C 5,8 km/h (2 Bft)
05.08.2013 15:10 29,7 C 46 % 1022,6 hPa 0,0 l/m 4,8 km/h (1 Bft) W-NW 292 16,8 C 32,3 C 7,6 km/h (2 Bft)
05.08.2013 15:15 29,9 C 45 % 1022,6 hPa 0,0 l/m 4,7 km/h (1 Bft) SW 225 16,7 C 32,1 C 3,7 km/h (1 Bft)
05.08.2013 15:20 30,2 C 46 % 1022,6 hPa 0,0 l/m 4,2 km/h (1 Bft) W-NW 292 17,3 C 32,8 C 8,4 km/h (2 Bft)
05.08.2013 15:25 30,2 C 42 % 1022,4 hPa 0,0 l/m 3,4 km/h (1 Bft) N-NO 22 15,8 C 32,8 C 2,9 km/h (1 Bft)
05.08.2013 15:30 30,2 C 45 % 1022,4 hPa 0,0 l/m 3,7 km/h (1 Bft) NW 315 16,9 C 33,1 C 3,4 km/h (1 Bft)
05.08.2013 15:35 30,2 C 44 % 1022,4 hPa 0,0 l/m 3,9 km/h (1 Bft) O 90 16,6 C 32,9 C 2,1 km/h (1 Bft)
05.08.2013 15:40 30,0 C 46 % 1022,4 hPa 0,0 l/m 3,4 km/h (1 Bft) W-NW 292 17,1 C 33,2 C 8,9 km/h (2 Bft)
05.08.2013 15:45 30,1 C 43 % 1022,4 hPa 0,0 l/m 3,4 km/h (1 Bft) N 360 16,1 C 32,7 C 8,5 km/h (2 Bft)
05.08.2013 15:50 30,3 C 44 % 1022,4 hPa 0,0 l/m 4,8 km/h (1 Bft) N-NO 22 16,7 C 32,7 C 3,4 km/h (1 Bft)
05.08.2013 15:55 30,2 C 43 % 1022,4 hPa 0,0 l/m 4,5 km/h (1 Bft) N-NW 337 16,2 C 32,8 C 4,3 km/h (1 Bft)
05.08.2013 16:00 30,6 C 42 % 1022,4 hPa 0,0 l/m 3,1 km/h (1 Bft) O 90 16,2 C 33,3 C 6,4 km/h (2 Bft)
05.08.2013 16:05 29,8 C 43 % 1022,4 hPa 0,0 l/m 3,1 km/h (1 Bft) W-NW 292 15,8 C 33,3 C 6,6 km/h (2 Bft)
05.08.2013 16:10 29,9 C 44 % 1022,4 hPa 0,0 l/m 4,2 km/h (1 Bft) O-NO 67 16,3 C 32,9 C 6,6 km/h (2 Bft)
05.08.2013 16:15 29,9 C 43 % 1022,4 hPa 0,0 l/m 3,9 km/h (1 Bft) NW 315 15,9 C 32,9 C 2,9 km/h (1 Bft)
05.08.2013 16:20 29,8 C 44 % 1022,4 hPa 0,0 l/m 4,3 km/h (1 Bft) N 360 16,2 C 33,2 C 5,5 km/h (1 Bft)
05.08.2013 16:25 29,6 C 42 % 1022,4 hPa 0,0 l/m 3,9 km/h (1 Bft) W 270 15,3 C 33,5 C 4,3 km/h (1 Bft)
05.08.2013 16:30 29,9 C 45 % 1022,4 hPa 0,0 l/m 2,6 km/h (1 Bft) N-NO 22 16,7 C 33,6 C 3,2 km/h (1 Bft)
05.08.2013 16:35 30,0 C 44 % 1022,4 hPa 0,0 l/m 2,7 km/h (1 Bft) O 90 16,4 C 34,1 C 2,9 km/h (1 Bft)
05.08.2013 16:40 29,8 C 43 % 1022,4 hPa 0,0 l/m 3,4 km/h (1 Bft) W-NW 292 15,8 C 34,6 C 5,3 km/h (1 Bft)
05.08.2013 16:45 29,4 C 44 % 1022,1 hPa 0,0 l/m 3,4 km/h (1 Bft) N-NO 22 15,8 C 34,5 C 7,4 km/h (2 Bft)
05.08.2013 16:50 28,8 C 45 % 1022,1 hPa 0,0 l/m 3,4 km/h (1 Bft) NO 45 15,7 C 34,7 C 5,8 km/h (2 Bft)
05.08.2013 16:55 28,5 C 47 % 1022,1 hPa 0,0 l/m 3,2 km/h (1 Bft) N 360 16,1 C 34,6 C 4,2 km/h (1 Bft)
05.08.2013 17:00 28,3 C 48 % 1022,1 hPa 0,0 l/m 2,7 km/h (1 Bft) N 360 16,2 C 34,5 C 0,0 km/h (0 Bft)
05.08.2013 17:05 28,4 C 49 % 1022,1 hPa 0,0 l/m 2,7 km/h (1 Bft) N-NO 22 16,6 C 34,9 C 5,1 km/h (1 Bft)
05.08.2013 17:10 28,2 C 49 % 1022,1 hPa 0,0 l/m 3,5 km/h (1 Bft) N 360 16,5 C 34,9 C 5,8 km/h (2 Bft)
05.08.2013 17:15 28,1 C 50 % 1022,1 hPa 0,0 l/m 3,7 km/h (1 Bft) O 90 16,7 C 34,6 C 3,2 km/h (1 Bft)
05.08.2013 17:20 28,0 C 49 % 1022,1 hPa 0,0 l/m 3,5 km/h (1 Bft) N 360 16,3 C 34,5 C 3,1 km/h (1 Bft)
05.08.2013 17:25 27,9 C 51 % 1021,9 hPa 0,0 l/m 2,7 km/h (1 Bft) W-NW 292 16,8 C 34,6 C 3,1 km/h (1 Bft)
05.08.2013 17:30 27,9 C 51 % 1021,9 hPa 0,0 l/m 2,6 km/h (1 Bft) O-NO 67 16,8 C 34,7 C 1,8 km/h (1 Bft)
05.08.2013 17:35 27,6 C 50 % 1021,9 hPa 0,0 l/m 3,4 km/h (1 Bft) N-NW 337 16,2 C 34,4 C 5,5 km/h (1 Bft)
05.08.2013 17:40 27,5 C 50 % 1021,9 hPa 0,0 l/m 4,0 km/h (1 Bft) NO 45 16,1 C 34,0 C 3,2 km/h (1 Bft)
05.08.2013 17:45 27,6 C 50 % 1021,9 hPa 0,0 l/m 3,2 km/h (1 Bft) W-NW 292 16,2 C 34,1 C 1,9 km/h (1 Bft)
05.08.2013 17:50 27,4 C 50 % 1021,9 hPa 0,0 l/m 2,3 km/h (1 Bft) NO 45 16,0 C 34,7 C 7,2 km/h (2 Bft)
05.08.2013 17:55 27,3 C 50 % 1021,9 hPa 0,0 l/m 2,4 km/h (1 Bft) NO 45 15,9 C 34,6 C 3,9 km/h (1 Bft)
05.08.2013 18:00 27,2 C 50 % 1021,9 hPa 0,0 l/m 2,7 km/h (1 Bft) N-NW 337 15,9 C 34,6 C 3,7 km/h (1 Bft)
05.08.2013 18:05 27,6 C 50 % 1021,8 hPa 0,0 l/m 3,1 km/h (1 Bft) N 360 16,2 C 34,5 C 4,7 km/h (1 Bft)
05.08.2013 18:10 27,3 C 50 % 1021,8 hPa 0,0 l/m 4,0 km/h (1 Bft) NW 315 15,9 C 33,9 C 3,7 km/h (1 Bft)
05.08.2013 18:15 27,2 C 51 % 1021,8 hPa 0,0 l/m 4,2 km/h (1 Bft) N 360 16,2 C 33,7 C 3,2 km/h (1 Bft)
05.08.2013 18:20 27,1 C 51 % 1021,8 hPa 0,0 l/m 3,7 km/h (1 Bft) W-NW 292 16,1 C 33,5 C 2,1 km/h (1 Bft)
05.08.2013 18:25 26,9 C 51 % 1021,4 hPa 0,0 l/m 3,4 km/h (1 Bft) N 360 15,9 C 33,5 C 3,9 km/h (1 Bft)
05.08.2013 18:30 26,8 C 51 % 1021,4 hPa 0,0 l/m 2,3 km/h (1 Bft) W-NW 292 15,8 C 33,7 C 0,0 km/h (0 Bft)
05.08.2013 18:35 26,7 C 53 % 1021,4 hPa 0,0 l/m 2,3 km/h (1 Bft) N-NW 337 16,3 C 34,0 C 5,1 km/h (1 Bft)
05.08.2013 18:40 26,8 C 52 % 1021,4 hPa 0,0 l/m 3,1 km/h (1 Bft) N 360 16,1 C 33,5 C 7,2 km/h (2 Bft)
05.08.2013 18:45 26,7 C 54 % 1020,9 hPa 0,0 l/m 3,2 km/h (1 Bft) N-NW 337 16,6 C 33,5 C 2,9 km/h (1 Bft)
05.08.2013 18:50 26,6 C 53 % 1020,9 hPa 0,0 l/m 2,3 km/h (1 Bft) N-NO 22 16,2 C 33,5 C 4,8 km/h (1 Bft)
05.08.2013 18:55 26,5 C 54 % 1020,9 hPa 0,0 l/m 2,1 km/h (1 Bft) NO 45 16,4 C 33,6 C 2,6 km/h (1 Bft)
05.08.2013 19:00 26,3 C 54 % 1020,9 hPa 0,0 l/m 1,6 km/h (1 Bft) N-NO 22 16,2 C 33,7 C 2,4 km/h (1 Bft)
05.08.2013 19:05 26,2 C 55 % 1020,6 hPa 0,0 l/m 1,9 km/h (1 Bft) W-SW 247 16,4 C 33,6 C 2,4 km/h (1 Bft)
05.08.2013 19:10 26,0 C 55 % 1020,6 hPa 0,0 l/m 1,4 km/h (1 Bft) S-SO 157 16,2 C 33,5 C 0,0 km/h (0 Bft)
05.08.2013 19:15 26,1 C 55 % 1020,6 hPa 0,0 l/m 1,0 km/h (0 Bft) O 90 16,3 C 33,5 C 2,3 km/h (1 Bft)
05.08.2013 19:20 25,9 C 57 % 1020,6 hPa 0,0 l/m 1,0 km/h (0 Bft) NO 45 16,7 C 33,6 C 0,0 km/h (0 Bft)
05.08.2013 19:25 25,7 C 57 % 1020,8 hPa 0,0 l/m 0,8 km/h (0 Bft) N 360 16,5 C 33,5 C 0,0 km/h (0 Bft)
05.08.2013 19:30 25,8 C 57 % 1020,8 hPa 0,0 l/m 0,5 km/h (0 Bft) O-SO 112 16,6 C 33,2 C 2,9 km/h (1 Bft)
05.08.2013 19:35 25,9 C 57 % 1020,8 hPa 0,0 l/m 1,1 km/h (1 Bft) O 90 16,7 C 32,9 C 2,9 km/h (1 Bft)
05.08.2013 19:40 25,8 C 57 % 1020,8 hPa 0,0 l/m 1,3 km/h (1 Bft) O-NO 67 16,6 C 32,5 C 0,0 km/h (0 Bft)
05.08.2013 19:45 25,6 C 58 % 1020,8 hPa 0,0 l/m 0,8 km/h (0 Bft) O 90 16,7 C 32,2 C 0,0 km/h (0 Bft)
05.08.2013 19:50 25,6 C 58 % 1020,8 hPa 0,0 l/m 1,3 km/h (1 Bft) NO 45 16,7 C 31,5 C 2,6 km/h (1 Bft)
05.08.2013 19:55 25,5 C 58 % 1020,8 hPa 0,0 l/m 1,8 km/h (1 Bft) O-SO 112 16,6 C 31,0 C 3,7 km/h (1 Bft)
05.08.2013 20:00 25,3 C 60 % 1020,8 hPa 0,0 l/m 1,4 km/h (1 Bft) NO 45 17,0 C 30,4 C 1,8 km/h (1 Bft)
05.08.2013 20:05 25,2 C 61 % 1020,6 hPa 0,0 l/m 1,0 km/h (0 Bft) O 90 17,1 C 29,9 C 0,0 km/h (0 Bft)
05.08.2013 20:10 25,2 C 60 % 1020,6 hPa 0,0 l/m 1,4 km/h (1 Bft) O-NO 67 16,9 C 29,3 C 1,9 km/h (1 Bft)
05.08.2013 20:15 25,1 C 61 % 1020,6 hPa 0,0 l/m 2,6 km/h (1 Bft) O-NO 67 17,0 C 28,9 C 4,8 km/h (1 Bft)
05.08.2013 20:20 24,5 C 65 % 1020,6 hPa 0,0 l/m 3,4 km/h (1 Bft) O-NO 67 17,5 C 28,0 C 3,9 km/h (1 Bft)
05.08.2013 20:25 24,2 C 66 % 1020,9 hPa 0,0 l/m 3,5 km/h (1 Bft) O-NO 67 17,4 C 27,3 C 3,5 km/h (1 Bft)
05.08.2013 20:30 24,0 C 67 % 1020,9 hPa 0,0 l/m 3,5 km/h (1 Bft) NO 45 17,5 C 26,4 C 3,4 km/h (1 Bft)
05.08.2013 20:35 23,9 C 68 % 1020,9 hPa 0,0 l/m 3,5 km/h (1 Bft) NO 45 17,6 C 25,7 C 4,2 km/h (1 Bft)
05.08.2013 20:40 23,6 C 69 % 1020,9 hPa 0,0 l/m 3,9 km/h (1 Bft) O 90 17,6 C 24,8 C 3,9 km/h (1 Bft)
05.08.2013 20:45 23,3 C 70 % 1021,1 hPa 0,0 l/m 4,0 km/h (1 Bft) O 90 17,5 C 24,3 C 4,0 km/h (1 Bft)
05.08.2013 20:50 23,1 C 69 % 1021,1 hPa 0,0 l/m 3,7 km/h (1 Bft) NO 45 17,1 C 23,5 C 3,9 km/h (1 Bft)
05.08.2013 20:55 23,0 C 69 % 1021,1 hPa 0,0 l/m 3,7 km/h (1 Bft) O 90 17,0 C 23,3 C 4,2 km/h (1 Bft)
05.08.2013 21:00 22,9 C 69 % 1021,1 hPa 0,0 l/m 3,4 km/h (1 Bft) O-NO 67 16,9 C 22,8 C 3,4 km/h (1 Bft)
05.08.2013 21:05 22,8 C 69 % 1021,1 hPa 0,0 l/m 3,4 km/h (1 Bft) NO 45 16,8 C 22,7 C 5,0 km/h (1 Bft)
05.08.2013 21:10 22,7 C 69 % 1021,1 hPa 0,0 l/m 3,5 km/h (1 Bft) O-NO 67 16,7 C 22,6 C 3,9 km/h (1 Bft)
05.08.2013 21:15 22,6 C 69 % 1021,1 hPa 0,0 l/m 3,5 km/h (1 Bft) O 90 16,6 C 22,5 C 3,1 km/h (1 Bft)
05.08.2013 21:20 21,8 C 72 % 1021,1 hPa 0,0 l/m 2,4 km/h (1 Bft) O 90 16,5 C 22,3 C 0,0 km/h (0 Bft)
05.08.2013 21:25 21,6 C 74 % 1021,1 hPa 0,0 l/m 1,9 km/h (1 Bft) NO 45 16,8 C 22,0 C 3,1 km/h (1 Bft)
05.08.2013 21:30 21,6 C 74 % 1021,1 hPa 0,0 l/m 1,9 km/h (1 Bft) O-NO 67 16,8 C 21,6 C 0,0 km/h (0 Bft)
05.08.2013 21:35 21,4 C 74 % 1021,1 hPa 0,0 l/m 1,1 km/h (1 Bft) O 90 16,6 C 21,4 C 0,0 km/h (0 Bft)
05.08.2013 21:40 21,3 C 75 % 1021,1 hPa 0,0 l/m 0,8 km/h (0 Bft) NO 45 16,7 C 21,2 C 0,0 km/h (0 Bft)
05.08.2013 21:45 21,2 C 75 % 1021,2 hPa 0,0 l/m 1,0 km/h (0 Bft) O-SO 112 16,6 C 21,2 C 2,1 km/h (1 Bft)
05.08.2013 21:50 21,1 C 74 % 1021,2 hPa 0,0 l/m 0,2 km/h (0 Bft) SO 135 16,3 C 21,0 C 0,0 km/h (0 Bft)
05.08.2013 21:55 20,9 C 75 % 1021,2 hPa 0,0 l/m 0,2 km/h (0 Bft) NO 45 16,3 C 21,0 C 0,0 km/h (0 Bft)
05.08.2013 22:00 20,6 C 76 % 1021,2 hPa 0,0 l/m 0,0 km/h (0 Bft) O 90 16,2 C 20,8 C 0,0 km/h (0 Bft)
05.08.2013 22:05 20,4 C 76 % 1021,2 hPa 0,0 l/m 0,0 km/h (0 Bft) NO 45 16,0 C 20,6 C 0,0 km/h (0 Bft)
05.08.2013 22:10 21,0 C 77 % 1021,2 hPa 0,0 l/m 0,6 km/h (0 Bft) O-NO 67 16,8 C 20,6 C 2,9 km/h (1 Bft)
05.08.2013 22:15 21,1 C 76 % 1021,2 hPa 0,0 l/m 1,6 km/h (1 Bft) NO 45 16,7 C 20,6 C 3,7 km/h (1 Bft)
05.08.2013 22:20 20,9 C 77 % 1021,2 hPa 0,0 l/m 3,2 km/h (1 Bft) S 180 16,7 C 20,8 C 2,7 km/h (1 Bft)
05.08.2013 22:25 20,6 C 77 % 1021,3 hPa 0,0 l/m 2,6 km/h (1 Bft) O-NO 67 16,4 C 20,9 C 0,0 km/h (0 Bft)
05.08.2013 22:30 20,6 C 77 % 1021,3 hPa 0,0 l/m 0,6 km/h (0 Bft) W-SW 247 16,4 C 20,8 C 0,0 km/h (0 Bft)
05.08.2013 22:35 20,5 C 78 % 1021,3 hPa 0,0 l/m 1,0 km/h (0 Bft) O 90 16,5 C 20,8 C 3,4 km/h (1 Bft)
05.08.2013 22:40 20,4 C 78 % 1021,3 hPa 0,0 l/m 1,1 km/h (1 Bft) O-NO 67 16,4 C 20,7 C 0,0 km/h (0 Bft)
05.08.2013 22:45 20,4 C 78 % 1021,3 hPa 0,0 l/m 0,6 km/h (0 Bft) O 90 16,4 C 20,5 C 0,0 km/h (0 Bft)
05.08.2013 22:50 20,5 C 79 % 1021,3 hPa 0,0 l/m 0,3 km/h (0 Bft) NO 45 16,7 C 20,4 C 0,0 km/h (0 Bft)
05.08.2013 22:55 20,3 C 78 % 1021,3 hPa 0,0 l/m 0,2 km/h (0 Bft) O-SO 112 16,3 C 20,2 C 2,3 km/h (1 Bft)
05.08.2013 23:00 20,5 C 79 % 1021,3 hPa 0,0 l/m 0,6 km/h (0 Bft) O 90 16,7 C 20,4 C 0,0 km/h (0 Bft)
05.08.2013 23:05 20,5 C 79 % 1021,4 hPa 0,0 l/m 0,6 km/h (0 Bft) NO 45 16,7 C 20,4 C 2,7 km/h (1 Bft)
05.08.2013 23:10 20,4 C 79 % 1021,4 hPa 0,0 l/m 1,0 km/h (0 Bft) O 90 16,6 C 20,4 C 3,2 km/h (1 Bft)
05.08.2013 23:15 20,4 C 79 % 1021,4 hPa 0,0 l/m 1,6 km/h (1 Bft) S 180 16,6 C 20,4 C 0,0 km/h (0 Bft)
05.08.2013 23:20 20,1 C 79 % 1021,4 hPa 0,0 l/m 1,3 km/h (1 Bft) NO 45 16,3 C 20,2 C 2,6 km/h (1 Bft)
05.08.2013 23:25 20,0 C 80 % 1021,3 hPa 0,0 l/m 1,3 km/h (1 Bft) O-SO 112 16,4 C 20,1 C 1,6 km/h (1 Bft)
05.08.2013 23:30 19,7 C 80 % 1021,3 hPa 0,0 l/m 1,4 km/h (1 Bft) NO 45 16,1 C 19,7 C 0,0 km/h (0 Bft)
05.08.2013 23:35 19,6 C 80 % 1021,3 hPa 0,0 l/m 0,5 km/h (0 Bft) N-NO 22 16,1 C 19,6 C 0,0 km/h (0 Bft)
05.08.2013 23:40 19,5 C 81 % 1021,3 hPa 0,0 l/m 0,2 km/h (0 Bft) O-NO 67 16,1 C 19,4 C 2,3 km/h (1 Bft)
05.08.2013 23:45 19,6 C 81 % 1021,6 hPa 0,0 l/m 0,3 km/h (0 Bft) O-NO 67 16,2 C 19,4 C 0,0 km/h (0 Bft)
05.08.2013 23:50 19,6 C 81 % 1021,6 hPa 0,0 l/m 0,3 km/h (0 Bft) O-SO 112 16,2 C 19,3 C 1,9 km/h (1 Bft)
05.08.2013 23:55 19,6 C 81 % 1021,6 hPa 0,0 l/m 0,2 km/h (0 Bft) O-SO 112 16,2 C 19,4 C 0,0 km/h (0 Bft)
_ Min-Zeit 05:50 16:25 20:20 - 22:05 - - 05:50 06:00 23:55
Minimum _ 12,6 C 42 % 1020,6 hPa - 0,0 km/h (0 Bft) - - 11,3 C 12,6 C 0,0 km/h (0 Bft)
_ Max-Zeit 16:00 07:10 00:00 23:55 13:20 - - 07:55 17:10 14:30
Maximum _ 30,6 C 92 % 1026,0 hPa 0,0 l/m 5,0 km/h
NW (1 Bft)
- - 19,3 C 34,9 C 12,6 km/h
N (3 Bft)
Durchschnitt _ 22,3 C 68 % 1022,7 hPa #0,0 l/m 1,7 km/h (1 Bft) NO - 15,3 C 24,0 C 2,4 km/h (1 Bft)